Time;durP1;ratioP1;P1;durP2;ratioP2;P2;SDS_P1;SDS_P2;PMS_P1;PMS_P2;Temp;Humidity;BMP_temperature;BMP_pressure;BME280_temperature;BME280_humidity;BME280_pressure;Samples;Min_cycle;Max_cycle;Signal;HPM_P1;HPM_P2
2023/05/19 00:00:56;;;;;;;3.57;1.00;;;20.30;54.30;;;;;;5070222;28;20373;-67
2023/05/19 00:03:22;;;;;;;2.10;0.95;;;20.30;54.30;;;;;;5071768;28;20056;-66
2023/05/19 00:05:48;;;;;;;3.40;1.08;;;20.30;54.30;;;;;;5072307;28;20052;-65
2023/05/19 00:08:17;;;;;;;3.63;1.02;;;20.30;54.30;;;;;;5054555;28;20052;-65
2023/05/19 00:10:42;;;;;;;2.53;0.98;;;20.30;54.40;;;;;;5055756;28;20048;-65
2023/05/19 00:13:08;;;;;;;2.90;1.10;;;20.30;54.30;;;;;;5071704;28;20542;-65
2023/05/19 00:15:34;;;;;;;2.17;0.90;;;20.20;54.30;;;;;;5070277;28;20059;-65
2023/05/19 00:18:00;;;;;;;3.08;1.08;;;20.20;54.30;;;;;;5072223;28;20052;-65
2023/05/19 00:20:26;;;;;;;3.50;1.00;;;20.20;54.30;;;;;;5072128;28;20048;-65
2023/05/19 00:22:51;;;;;;;2.78;1.10;;;20.20;54.30;;;;;;5070869;28;20036;-65
2023/05/19 00:25:17;;;;;;;2.90;1.17;;;20.20;54.30;;;;;;5073011;28;20041;-65
2023/05/19 00:27:42;;;;;;;2.25;0.85;;;20.20;54.40;;;;;;5071273;28;20052;-66
2023/05/19 00:30:08;;;;;;;3.72;0.88;;;20.20;54.40;;;;;;5070551;28;20048;-65
2023/05/19 00:32:34;;;;;;;2.33;0.90;;;20.20;54.40;;;;;;5071913;28;20033;-65
2023/05/19 00:34:59;;;;;;;1.88;1.00;;;20.20;54.40;;;;;;5072001;28;20434;-65
2023/05/19 00:37:25;;;;;;;3.92;1.23;;;20.20;54.40;;;;;;5071608;28;20050;-65
2023/05/19 00:39:51;;;;;;;4.00;1.10;;;20.20;54.40;;;;;;5073051;28;20043;-65
2023/05/19 00:42:16;;;;;;;2.42;0.80;;;20.20;54.40;;;;;;5072735;28;20060;-65
2023/05/19 00:44:42;;;;;;;1.42;0.68;;;20.20;54.40;;;;;;5063082;28;20040;-65
2023/05/19 00:47:08;;;;;;;2.35;0.88;;;20.10;54.40;;;;;;5090987;28;20052;-65
2023/05/19 00:49:34;;;;;;;2.45;0.90;;;20.20;54.40;;;;;;5072253;28;20036;-65
2023/05/19 00:52:00;;;;;;;2.80;1.00;;;20.10;54.40;;;;;;5072700;28;20399;-65
2023/05/19 00:54:26;;;;;;;3.42;1.05;;;20.10;54.40;;;;;;5071265;28;20052;-65
2023/05/19 00:56:53;;;;;;;4.50;0.90;;;20.10;54.40;;;;;;5071937;28;20052;-65
2023/05/19 00:59:18;;;;;;;2.70;1.00;;;20.10;54.50;;;;;;5071939;28;20373;-65
2023/05/19 01:01:47;;;;;;;1.95;1.10;;;20.10;54.50;;;;;;5072488;28;20515;-65
2023/05/19 01:04:15;;;;;;;3.03;1.02;;;20.10;54.40;;;;;;5070353;28;20119;-65
2023/05/19 01:06:42;;;;;;;4.50;1.27;;;20.10;54.50;;;;;;5072445;28;20538;-65
2023/05/19 01:09:08;;;;;;;2.38;1.00;;;20.10;54.50;;;;;;5070877;28;20048;-65
2023/05/19 01:11:33;;;;;;;3.63;1.10;;;20.10;54.50;;;;;;5069818;28;20465;-65
2023/05/19 01:13:59;;;;;;;2.53;0.85;;;20.10;54.50;;;;;;5072333;28;20123;-65
2023/05/19 01:16:39;;;;;;;2.83;0.80;;;20.10;54.50;;;;;;5072258;28;20044;-64
2023/05/19 01:19:24;;;;;;;1.98;0.80;;;20.10;54.50;;;;;;5069499;28;20040;-64
2023/05/19 01:22:11;;;;;;;3.53;0.90;;;20.00;54.50;;;;;;5071476;28;20052;-65
2023/05/19 01:24:48;;;;;;;2.85;0.88;;;20.00;54.50;;;;;;5070635;28;20086;-65
2023/05/19 01:27:29;;;;;;;2.40;0.90;;;20.00;54.50;;;;;;5070674;28;20083;-65
2023/05/19 01:30:16;;;;;;;2.97;0.75;;;20.00;55.20;;;;;;5071394;28;20044;-65
2023/05/19 01:32:42;;;;;;;3.38;1.00;;;20.00;54.50;;;;;;5070020;28;20055;-65
2023/05/19 01:35:08;;;;;;;2.55;0.88;;;20.00;54.50;;;;;;5070855;28;20116;-65
2023/05/19 01:37:35;;;;;;;2.90;0.80;;;20.00;54.50;;;;;;5072301;28;20126;-65
2023/05/19 01:40:00;;;;;;;2.45;0.77;;;20.00;54.50;;;;;;5056046;28;20063;-65
2023/05/19 01:42:26;;;;;;;2.33;0.98;;;20.00;54.50;;;;;;5060567;28;20499;-66
2023/05/19 01:44:52;;;;;;;2.97;1.00;;;20.00;54.60;;;;;;5060522;28;20044;-65
2023/05/19 01:47:18;;;;;;;2.60;0.80;;;20.00;54.60;;;;;;5076641;28;20056;-65
2023/05/19 01:49:43;;;;;;;3.33;1.02;;;20.00;54.60;;;;;;5077440;28;20111;-65
2023/05/19 01:52:09;;;;;;;2.28;0.90;;;20.00;54.60;;;;;;5078469;28;20059;-65
2023/05/19 01:54:34;;;;;;;2.55;1.00;;;19.90;54.50;;;;;;5077795;28;20051;-64
2023/05/19 01:57:26;;;;;;;2.83;0.90;;;19.90;54.60;;;;;;5078346;28;20079;-64
2023/05/19 02:00:12;;;;;;;4.15;1.00;;;20.00;54.60;;;;;;5076934;28;20048;-65
2023/05/19 02:02:42;;;;;;;2.50;0.88;;;19.90;54.50;;;;;;5077614;28;20052;-64
2023/05/19 02:05:44;;;;;;;2.00;0.85;;;19.90;54.60;;;;;;5075740;28;20040;-64
2023/05/19 02:08:13;;;;;;;3.42;0.98;;;19.90;54.50;;;;;;5075783;28;20037;-65
2023/05/19 02:10:40;;;;;;;2.22;0.80;;;19.90;54.60;;;;;;5077363;28;20036;-64
2023/05/19 02:13:07;;;;;;;2.38;0.90;;;19.90;54.60;;;;;;5060228;28;20051;-65
2023/05/19 02:15:42;;;;;;;2.63;1.05;;;19.90;54.60;;;;;;5083519;28;20472;-64
2023/05/19 02:18:12;;;;;;;5.30;1.10;;;19.90;54.60;;;;;;5059999;28;20040;-64
2023/05/19 02:20:38;;;;;;;2.33;0.90;;;19.90;54.60;;;;;;5076971;28;20111;-64
2023/05/19 02:23:04;;;;;;;2.45;1.10;;;19.90;54.60;;;;;;5077682;28;20609;-64
2023/05/19 02:25:29;;;;;;;1.90;0.93;;;19.90;54.60;;;;;;5078009;28;20123;-64
2023/05/19 02:27:56;;;;;;;3.63;0.90;;;19.90;54.60;;;;;;5077220;28;20130;-65
2023/05/19 02:30:22;;;;;;;2.72;0.98;;;19.80;54.60;;;;;;5077094;28;20056;-64
2023/05/19 02:32:48;;;;;;;2.75;0.90;;;19.80;54.60;;;;;;5077003;28;20407;-65
2023/05/19 02:35:13;;;;;;;2.92;0.90;;;19.80;54.60;;;;;;5076661;28;20591;-64
2023/05/19 02:37:39;;;;;;;3.03;0.90;;;19.80;54.60;;;;;;5076987;28;20517;-64
2023/05/19 02:40:05;;;;;;;3.15;1.00;;;19.80;54.60;;;;;;5078244;28;20044;-65
2023/05/19 02:42:31;;;;;;;2.05;1.10;;;19.80;54.60;;;;;;5090309;28;20051;-64
2023/05/19 02:44:56;;;;;;;2.45;0.77;;;19.80;54.60;;;;;;5079662;28;20040;-65
2023/05/19 02:47:22;;;;;;;2.97;0.90;;;19.80;54.60;;;;;;5077910;28;20044;-65
2023/05/19 02:49:47;;;;;;;1.95;0.82;;;19.80;54.60;;;;;;5077409;28;20040;-65
2023/05/19 02:52:13;;;;;;;2.63;0.80;;;19.80;54.60;;;;;;5095270;28;20040;-65
2023/05/19 02:54:38;;;;;;;2.50;0.90;;;19.80;54.60;;;;;;5080818;28;20075;-65
2023/05/19 02:57:04;;;;;;;1.63;0.75;;;19.80;54.60;;;;;;5073926;28;20075;-65
2023/05/19 02:59:30;;;;;;;2.25;0.75;;;19.80;54.60;;;;;;5074789;28;20052;-65
2023/05/19 03:02:00;;;;;;;2.33;0.80;;;19.80;54.60;;;;;;5074973;28;20044;-65
2023/05/19 03:04:27;;;;;;;1.52;0.80;;;19.70;54.50;;;;;;5073427;28;20135;-65
2023/05/19 03:06:53;;;;;;;4.15;1.00;;;19.70;54.50;;;;;;5094248;28;20052;-65
2023/05/19 03:09:18;;;;;;;4.05;0.90;;;19.80;54.60;;;;;;5083926;28;20044;-64
2023/05/19 03:11:44;;;;;;;2.00;0.70;;;19.80;54.60;;;;;;5074254;28;20048;-64
2023/05/19 03:14:10;;;;;;;1.77;0.90;;;19.70;54.50;;;;;;5074250;28;20045;-64
2023/05/19 03:16:36;;;;;;;2.55;0.90;;;19.70;54.50;;;;;;5074539;28;20049;-64
2023/05/19 03:19:01;;;;;;;3.45;1.05;;;19.80;54.50;;;;;;5072447;28;20506;-64
2023/05/19 03:21:27;;;;;;;2.30;0.75;;;19.70;54.40;;;;;;5072943;28;20426;-64
2023/05/19 03:23:53;;;;;;;2.15;0.70;;;19.80;54.50;;;;;;5073032;28;20040;-64
2023/05/19 03:26:19;;;;;;;3.42;0.98;;;19.80;55.20;;;;;;5072936;28;20495;-64
2023/05/19 03:28:44;;;;;;;1.33;0.88;;;19.80;54.50;;;;;;5072969;28;20476;-64
2023/05/19 03:31:10;;;;;;;2.15;0.68;;;19.80;54.50;;;;;;5074033;28;20082;-64
2023/05/19 03:33:35;;;;;;;3.00;1.10;;;19.80;54.60;;;;;;5073716;28;20059;-64
2023/05/19 03:36:02;;;;;;;1.58;0.77;;;19.80;54.60;;;;;;5074365;28;20048;-64
2023/05/19 03:38:28;;;;;;;2.25;0.80;;;19.80;54.70;;;;;;5073338;28;20440;-64
2023/05/19 03:40:53;;;;;;;2.22;0.85;;;19.80;54.70;;;;;;5074090;28;20514;-64
2023/05/19 03:43:19;;;;;;;2.47;0.93;;;19.80;54.70;;;;;;5073692;28;20408;-64
2023/05/19 03:45:45;;;;;;;1.73;0.75;;;19.80;55.40;;;;;;5072026;28;20068;-64
2023/05/19 03:48:11;;;;;;;2.33;0.70;;;19.80;54.70;;;;;;5072272;28;20095;-64
2023/05/19 03:50:36;;;;;;;2.53;0.90;;;19.90;54.80;;;;;;5071168;28;20115;-64
2023/05/19 03:53:02;;;;;;;3.85;0.95;;;19.80;54.80;;;;;;5072440;28;20128;-64
2023/05/19 03:55:31;;;;;;;2.47;0.75;;;19.90;54.90;;;;;;5073259;28;20075;-64
2023/05/19 03:57:56;;;;;;;1.83;0.90;;;19.80;54.80;;;;;;5072690;28;20095;-64
2023/05/19 04:00:22;;;;;;;2.10;0.80;;;19.90;54.90;;;;;;5069705;28;20058;-64
2023/05/19 04:02:48;;;;;;;2.78;0.80;;;19.90;54.90;;;;;;5058270;28;20068;-64
2023/05/19 04:05:14;;;;;;;2.33;0.80;;;19.90;54.90;;;;;;5072467;28;20044;-64
2023/05/19 04:07:40;;;;;;;3.03;0.90;;;19.90;54.90;;;;;;5072730;28;20093;-64
2023/05/19 04:10:06;;;;;;;2.22;0.70;;;19.90;54.90;;;;;;5073198;28;20049;-64
2023/05/19 04:12:31;;;;;;;2.58;0.90;;;19.90;54.90;;;;;;5073695;28;20044;-64
2023/05/19 04:14:57;;;;;;;3.13;1.10;;;19.90;54.90;;;;;;5071489;28;20108;-64
2023/05/19 04:17:25;;;;;;;1.70;0.93;;;20.00;55.00;;;;;;5073059;28;20079;-64
2023/05/19 04:19:51;;;;;;;2.00;0.70;;;19.90;54.80;;;;;;5073048;28;20119;-64
2023/05/19 04:22:16;;;;;;;1.40;0.70;;;19.90;54.90;;;;;;5071318;28;20349;-64
2023/05/19 04:24:42;;;;;;;1.50;0.57;;;20.00;55.00;;;;;;5072338;28;20072;-64
2023/05/19 04:27:10;;;;;;;2.45;0.73;;;20.00;55.00;;;;;;5071304;28;20060;-64
2023/05/19 04:29:37;;;;;;;2.28;0.80;;;20.00;55.00;;;;;;5071712;28;20040;-64
2023/05/19 04:32:06;;;;;;;2.13;0.82;;;20.00;54.90;;;;;;5071909;28;20182;-64
2023/05/19 04:34:33;;;;;;;2.17;0.80;;;20.00;54.90;;;;;;5072378;28;20041;-64
2023/05/19 04:36:59;;;;;;;2.90;0.80;;;20.00;54.90;;;;;;5071608;28;20495;-64
2023/05/19 04:39:25;;;;;;;2.33;0.88;;;20.00;54.90;;;;;;5072516;28;20083;-65
2023/05/19 04:41:52;;;;;;;1.05;0.60;;;20.10;55.00;;;;;;5072189;28;20068;-65
2023/05/19 04:44:19;;;;;;;2.67;0.80;;;20.10;55.00;;;;;;5071005;28;20472;-64
2023/05/19 04:46:44;;;;;;;3.17;0.70;;;20.10;55.00;;;;;;5068189;28;20318;-64
2023/05/19 04:49:13;;;;;;;2.03;0.98;;;20.10;55.00;;;;;;5055106;28;20037;-64
2023/05/19 04:51:40;;;;;;;2.60;0.82;;;20.10;55.00;;;;;;5073101;28;20047;-64
2023/05/19 04:54:07;;;;;;;1.60;0.70;;;20.10;55.00;;;;;;5072064;28;20467;-64
2023/05/19 04:56:32;;;;;;;2.67;0.88;;;20.10;55.00;;;;;;5071792;28;20048;-65
2023/05/19 04:58:58;;;;;;;2.88;1.10;;;20.20;55.00;;;;;;5070349;28;20048;-64
2023/05/19 05:01:24;;;;;;;2.13;0.80;;;20.20;55.70;;;;;;5072465;28;20472;-65
2023/05/19 05:03:53;;;;;;;1.77;0.82;;;20.20;55.00;;;;;;5071957;28;20051;-65
2023/05/19 05:06:20;;;;;;;1.70;0.68;;;20.20;55.00;;;;;;5050965;28;20133;-65
2023/05/19 05:08:45;;;;;;;1.90;0.90;;;20.20;55.20;;;;;;5051461;28;20041;-65
2023/05/19 05:11:11;;;;;;;2.17;0.80;;;20.20;55.10;;;;;;5070272;28;20047;-65
2023/05/19 05:13:37;;;;;;;2.88;0.70;;;20.20;55.10;;;;;;5071185;28;20044;-65
2023/05/19 05:16:05;;;;;;;2.20;0.90;;;20.20;55.20;;;;;;5071909;28;20559;-65
2023/05/19 05:18:32;;;;;;;2.20;0.80;;;20.20;55.20;;;;;;5071789;28;20037;-65
2023/05/19 05:20:58;;;;;;;1.45;0.73;;;20.20;55.20;;;;;;5071116;28;20041;-65
2023/05/19 05:23:24;;;;;;;1.75;0.95;;;20.20;55.20;;;;;;5078508;28;20115;-65
2023/05/19 05:25:50;;;;;;;3.03;1.08;;;20.30;55.30;;;;;;5074289;28;20074;-66
2023/05/19 05:28:15;;;;;;;2.42;0.77;;;20.20;55.30;;;;;;5072202;28;20076;-65
2023/05/19 05:30:42;;;;;;;2.50;0.88;;;20.30;55.50;;;;;;5050965;28;20131;-65
2023/05/19 05:33:08;;;;;;;1.38;0.80;;;20.30;55.50;;;;;;5050945;28;20053;-65
2023/05/19 05:35:33;;;;;;;2.90;0.77;;;20.30;56.20;;;;;;5063743;28;20057;-65
2023/05/19 05:38:00;;;;;;;1.88;0.65;;;20.30;55.50;;;;;;5071634;28;20126;-65
2023/05/19 05:40:26;;;;;;;2.63;1.00;;;20.30;55.60;;;;;;5071929;28;20049;-65
2023/05/19 05:42:54;;;;;;;2.00;0.82;;;20.30;55.60;;;;;;5072162;28;20055;-65
2023/05/19 05:45:22;;;;;;;1.83;0.60;;;20.30;55.60;;;;;;5069955;28;20083;-65
2023/05/19 05:47:48;;;;;;;2.55;1.15;;;20.30;55.50;;;;;;5072267;28;20044;-65
2023/05/19 05:50:14;;;;;;;1.15;0.55;;;20.30;55.50;;;;;;5070666;28;20443;-65
2023/05/19 05:52:40;;;;;;;1.83;0.93;;;20.30;55.50;;;;;;5069959;28;20400;-65
2023/05/19 05:55:06;;;;;;;2.15;0.82;;;20.30;55.50;;;;;;5081486;28;20078;-65
2023/05/19 05:57:34;;;;;;;1.73;0.70;;;20.30;55.50;;;;;;5089359;28;20093;-65
2023/05/19 05:59:59;;;;;;;1.05;0.60;;;20.30;55.50;;;;;;5084759;28;20492;-65
2023/05/19 06:02:26;;;;;;;1.88;0.73;;;20.30;55.40;;;;;;5071890;28;20048;-65
2023/05/19 06:04:53;;;;;;;4.18;0.90;;;20.30;55.40;;;;;;5072017;28;20059;-65
2023/05/19 06:07:18;;;;;;;1.70;0.70;;;20.30;55.50;;;;;;5071065;28;20119;-66
2023/05/19 06:09:44;;;;;;;3.00;0.80;;;20.30;55.40;;;;;;5070453;28;20186;-65
2023/05/19 06:12:10;;;;;;;2.25;0.98;;;20.30;55.30;;;;;;5071288;28;20163;-66
2023/05/19 06:14:35;;;;;;;3.90;1.00;;;20.40;55.40;;;;;;5071112;28;20132;-65
2023/05/19 06:17:01;;;;;;;2.50;0.88;;;20.30;55.30;;;;;;5071810;28;20040;-65
2023/05/19 06:19:27;;;;;;;3.25;0.82;;;20.40;55.40;;;;;;5071505;28;20392;-65
2023/05/19 06:21:52;;;;;;;3.33;0.90;;;20.40;55.40;;;;;;5071330;28;20454;-65
2023/05/19 06:24:18;;;;;;;3.08;0.80;;;20.40;55.50;;;;;;5070214;28;20049;-65
2023/05/19 06:26:43;;;;;;;4.90;1.02;;;20.40;55.50;;;;;;5072007;28;20061;-66
2023/05/19 06:29:09;;;;;;;3.33;1.05;;;20.40;55.50;;;;;;5073219;28;20053;-65
2023/05/19 06:31:35;;;;;;;3.70;0.75;;;20.40;55.60;;;;;;5073996;28;20080;-65
2023/05/19 06:34:00;;;;;;;4.38;1.08;;;20.40;55.60;;;;;;5075517;28;20052;-67
2023/05/19 06:36:26;;;;;;;4.03;1.10;;;20.40;55.60;;;;;;5073753;28;20055;-64
2023/05/19 06:38:51;;;;;;;3.45;1.08;;;20.40;56.40;;;;;;5075266;28;20039;-63
2023/05/19 06:41:17;;;;;;;4.63;0.93;;;20.40;55.80;;;;;;5072888;28;20453;-63
2023/05/19 06:43:42;;;;;;;3.83;0.90;;;20.50;56.00;;;;;;5075123;28;20041;-67
2023/05/19 06:46:08;;;;;;;2.78;0.90;;;20.50;56.00;;;;;;5075576;28;20036;-68
2023/05/19 06:48:33;;;;;;;4.15;1.00;;;20.50;56.00;;;;;;5094692;28;20043;-69
2023/05/19 06:50:59;;;;;;;2.80;1.00;;;20.50;55.90;;;;;;5082927;28;20045;-65
2023/05/19 06:53:25;;;;;;;3.85;1.10;;;20.50;55.90;;;;;;5074909;28;20036;-65
2023/05/19 06:55:51;;;;;;;4.50;1.05;;;20.50;55.90;;;;;;5074164;28;20369;-64
2023/05/19 06:58:16;;;;;;;5.18;1.20;;;20.50;56.00;;;;;;5074573;28;20040;-64
2023/05/19 07:00:42;;;;;;;3.88;1.10;;;20.50;56.10;;;;;;5073659;28;20512;-64
2023/05/19 07:03:08;;;;;;;3.50;0.90;;;20.50;56.10;;;;;;5073959;28;20381;-63
2023/05/19 07:05:33;;;;;;;6.28;1.45;;;20.50;56.20;;;;;;5074808;28;20063;-63
2023/05/19 07:08:00;;;;;;;2.95;0.82;;;20.50;56.10;;;;;;5074624;28;20122;-64
2023/05/19 07:10:26;;;;;;;4.35;1.00;;;20.60;56.20;;;;;;5073298;28;20472;-64
2023/05/19 07:12:51;;;;;;;2.72;1.17;;;20.60;56.30;;;;;;5074783;28;20090;-64
2023/05/19 07:15:17;;;;;;;2.53;0.95;;;20.60;56.40;;;;;;5072930;28;20040;-63
2023/05/19 07:17:43;;;;;;;2.50;1.10;;;20.60;56.40;;;;;;5072257;28;20483;-64
2023/05/19 07:20:09;;;;;;;5.45;1.05;;;20.60;56.50;;;;;;5072777;28;20033;-64
2023/05/19 07:22:35;;;;;;;4.00;1.10;;;20.60;56.50;;;;;;5073484;28;20040;-65
2023/05/19 07:25:01;;;;;;;3.70;1.08;;;20.60;56.60;;;;;;5073198;28;20088;-64
2023/05/19 07:27:26;;;;;;;3.83;0.90;;;20.60;56.60;;;;;;5085654;28;20083;-65
2023/05/19 07:29:53;;;;;;;4.63;1.00;;;20.60;56.70;;;;;;5080133;28;20131;-64
2023/05/19 07:32:19;;;;;;;2.33;0.98;;;20.60;56.80;;;;;;5073149;28;20056;-64
2023/05/19 07:34:44;;;;;;;4.10;1.20;;;20.70;57.00;;;;;;5073088;28;20041;-67
2023/05/19 07:37:10;;;;;;;3.45;1.00;;;20.70;57.00;;;;;;5072436;28;20052;-67
2023/05/19 07:39:36;;;;;;;2.83;1.23;;;20.70;57.00;;;;;;5072840;28;20047;-66
2023/05/19 07:42:01;;;;;;;3.40;1.02;;;20.70;56.80;;;;;;5074326;28;20044;-67
2023/05/19 07:44:27;;;;;;;5.10;1.08;;;20.70;56.70;;;;;;5073536;28;20178;-65
2023/05/19 07:46:53;;;;;;;4.10;1.27;;;20.70;56.70;;;;;;5073020;28;20044;-64
2023/05/19 07:49:18;;;;;;;3.72;1.13;;;20.70;56.80;;;;;;5073091;28;20066;-68
2023/05/19 07:51:44;;;;;;;5.95;1.17;;;20.70;56.90;;;;;;5072436;28;20048;-65
2023/05/19 07:54:10;;;;;;;3.75;1.20;;;20.70;56.90;;;;;;5074175;28;20491;-65
2023/05/19 07:56:35;;;;;;;3.55;1.33;;;20.80;56.80;;;;;;5073757;28;20052;-65
2023/05/19 07:59:01;;;;;;;4.20;1.00;;;20.80;56.70;;;;;;5072241;28;20040;-65
2023/05/19 08:01:28;;;;;;;4.43;1.30;;;20.80;56.60;;;;;;5074140;28;20070;-65
2023/05/19 08:03:53;;;;;;;4.13;1.10;;;20.80;56.60;;;;;;5056182;28;20723;-64
2023/05/19 08:06:20;;;;;;;5.45;1.13;;;20.80;56.50;;;;;;5072431;28;20076;-65
2023/05/19 08:08:46;;;;;;;6.30;1.40;;;20.80;56.50;;;;;;5072671;28;20044;-65
2023/05/19 08:11:11;;;;;;;5.82;1.10;;;20.80;56.40;;;;;;5063856;28;20041;-65
2023/05/19 08:13:37;;;;;;;4.30;1.65;;;20.80;56.30;;;;;;5053020;28;20403;-65
2023/05/19 08:16:02;;;;;;;4.75;1.27;;;20.90;56.30;;;;;;5065626;28;20048;-65
2023/05/19 08:18:28;;;;;;;4.00;1.20;;;20.90;56.20;;;;;;5059017;28;20055;-64
2023/05/19 08:20:53;;;;;;;4.20;1.10;;;20.90;56.20;;;;;;5065326;28;20040;-65
2023/05/19 08:23:20;;;;;;;4.57;1.13;;;20.90;56.20;;;;;;5058071;28;20040;-64
2023/05/19 08:25:46;;;;;;;4.30;1.30;;;20.90;56.20;;;;;;5053628;28;20052;-65
2023/05/19 08:28:12;;;;;;;5.03;1.20;;;20.90;56.10;;;;;;5056207;28;20052;-65
2023/05/19 08:30:37;;;;;;;3.22;1.20;;;20.90;56.00;;;;;;5063750;28;20048;-65
2023/05/19 08:33:03;;;;;;;5.50;1.23;;;20.90;56.00;;;;;;5073079;28;20119;-65
2023/05/19 08:35:29;;;;;;;3.80;1.02;;;20.90;56.00;;;;;;5071872;28;20403;-65
2023/05/19 08:37:54;;;;;;;4.20;1.17;;;20.90;55.90;;;;;;5070621;28;20053;-65
2023/05/19 08:40:20;;;;;;;2.35;0.98;;;20.90;55.90;;;;;;5072802;28;20040;-65
2023/05/19 08:42:46;;;;;;;2.58;1.20;;;20.90;55.90;;;;;;5071984;28;20075;-65
2023/05/19 08:45:11;;;;;;;4.00;1.13;;;20.90;55.80;;;;;;5071535;28;20063;-65
2023/05/19 08:47:37;;;;;;;3.05;1.05;;;20.90;55.90;;;;;;5072768;28;20036;-66
2023/05/19 08:50:06;;;;;;;4.55;1.42;;;20.90;55.90;;;;;;5071120;28;20048;-65
2023/05/19 08:52:44;;;;;;;5.38;1.00;;;21.00;55.90;;;;;;5060549;28;20656;-65
2023/05/19 08:55:20;;;;;;;4.07;1.10;;;21.00;55.90;;;;;;5070674;28;20063;-64
2023/05/19 08:57:47;;;;;;;4.20;1.15;;;21.00;56.00;;;;;;5067531;28;20041;-65
2023/05/19 09:00:13;;;;;;;3.95;1.00;;;21.00;55.90;;;;;;5079275;28;20114;-66
2023/05/19 09:02:38;;;;;;;2.13;1.00;;;21.00;55.90;;;;;;5070365;28;20080;-65
2023/05/19 09:05:04;;;;;;;7.28;1.45;;;21.00;55.80;;;;;;5073005;28;20119;-65
2023/05/19 09:07:33;;;;;;;2.72;1.15;;;21.00;55.80;;;;;;5071396;28;20045;-65
2023/05/19 09:10:00;;;;;;;3.10;1.00;;;21.10;55.90;;;;;;5070672;28;20519;-65
2023/05/19 09:12:25;;;;;;;4.50;1.23;;;21.00;55.90;;;;;;5062339;28;20051;-65
2023/05/19 09:14:51;;;;;;;5.97;1.38;;;21.00;55.90;;;;;;5073008;28;20040;-66
2023/05/19 09:17:17;;;;;;;4.47;1.52;;;21.00;55.90;;;;;;5071676;28;20059;-66
2023/05/19 09:19:46;;;;;;;5.28;1.27;;;21.10;56.00;;;;;;5072759;28;20499;-65
2023/05/19 09:22:13;;;;;;;3.67;1.33;;;21.10;56.00;;;;;;5071130;28;20053;-66
2023/05/19 09:24:39;;;;;;;4.75;1.25;;;21.10;56.00;;;;;;5070396;28;20045;-65
2023/05/19 09:27:05;;;;;;;4.45;1.10;;;21.10;56.00;;;;;;5071292;28;20056;-64
2023/05/19 09:29:30;;;;;;;4.30;1.42;;;21.10;56.30;;;;;;5072247;28;20055;-64
2023/05/19 09:32:00;;;;;;;6.47;1.35;;;21.10;56.70;;;;;;5071598;28;20082;-64
2023/05/19 09:34:26;;;;;;;4.05;1.20;;;21.10;57.00;;;;;;5072524;28;20052;-65
2023/05/19 09:36:52;;;;;;;5.10;1.60;;;21.20;57.40;;;;;;5084473;28;20044;-64
2023/05/19 09:39:19;;;;;;;7.57;1.00;;;21.20;57.60;;;;;;5091552;28;20110;-65
2023/05/19 09:41:44;;;;;;;8.23;1.60;;;21.20;57.70;;;;;;5076406;28;20094;-65
2023/05/19 09:44:28;;;;;;;5.97;1.30;;;21.20;57.70;;;;;;5071024;28;20036;-64
2023/05/19 09:46:53;;;;;;;4.50;1.10;;;21.20;57.70;;;;;;5070926;28;20080;-64
2023/05/19 09:49:24;;;;;;;3.67;1.02;;;21.20;57.60;;;;;;5070253;28;20071;-64
2023/05/19 09:51:53;;;;;;;3.08;1.10;;;21.20;57.60;;;;;;5069364;28;20056;-63
2023/05/19 09:54:20;;;;;;;4.53;1.40;;;21.20;57.60;;;;;;5071245;28;20044;-64
2023/05/19 09:56:51;;;;;;;3.72;1.10;;;21.20;57.50;;;;;;5071479;28;20395;-63
2023/05/19 09:59:17;;;;;;;5.07;1.58;;;21.20;57.50;;;;;;5071101;28;20055;-63
2023/05/19 10:01:45;;;;;;;4.47;1.40;;;21.20;57.40;;;;;;5038502;28;20048;-63
2023/05/19 10:04:11;;;;;;;4.47;1.10;;;21.20;57.40;;;;;;5065252;28;20523;-64
2023/05/19 10:06:37;;;;;;;3.42;1.30;;;21.20;57.30;;;;;;5063817;28;20323;-64
2023/05/19 10:09:02;;;;;;;6.88;1.30;;;21.20;57.30;;;;;;5057958;28;20480;-64
2023/05/19 10:11:29;;;;;;;3.42;1.20;;;21.20;57.30;;;;;;5074143;28;20048;-64
2023/05/19 10:13:54;;;;;;;5.72;1.13;;;21.30;57.30;;;;;;5075329;28;20037;-65
2023/05/19 10:16:20;;;;;;;4.03;0.98;;;21.30;57.30;;;;;;5073694;28;20045;-65
2023/05/19 10:18:45;;;;;;;3.00;1.27;;;21.30;57.30;;;;;;5064399;28;20044;-66
2023/05/19 10:21:11;;;;;;;3.35;1.00;;;21.30;57.30;;;;;;5078987;28;20131;-65
2023/05/19 10:23:37;;;;;;;6.07;1.25;;;21.30;57.30;;;;;;5074605;28;20522;-63
2023/05/19 10:26:03;;;;;;;3.35;1.33;;;21.30;57.20;;;;;;5074041;28;20055;-65
2023/05/19 10:28:39;;;;;;;4.85;1.15;;;21.30;57.20;;;;;;5075113;28;20072;-64
2023/05/19 10:31:06;;;;;;;5.03;1.27;;;21.30;56.90;;;;;;5073452;28;20177;-64
2023/05/19 10:33:55;;;;;;;3.13;1.17;;;21.30;56.80;;;;;;5073610;28;20570;-64
2023/05/19 10:36:50;;;;;;;4.57;1.30;;;21.30;56.70;;;;;;5072861;28;20094;-64
2023/05/19 10:39:26;;;;;;;2.45;1.13;;;21.30;56.60;;;;;;5074125;28;20377;-64
2023/05/19 10:42:22;;;;;;;6.80;1.58;;;21.30;56.60;;;;;;5073134;28;20102;-64
2023/05/19 10:45:15;;;;;;;4.70;1.20;;;21.30;56.60;;;;;;5071352;28;20055;-64
2023/05/19 10:47:40;;;;;;;3.65;1.58;;;21.40;56.70;;;;;;5073790;28;20124;-64
2023/05/19 10:50:07;;;;;;;6.00;1.67;;;21.30;56.60;;;;;;5057268;28;20071;-64
2023/05/19 10:52:36;;;;;;;3.20;1.30;;;21.40;56.60;;;;;;5074123;28;20048;-63
2023/05/19 10:55:02;;;;;;;4.45;1.92;;;21.40;56.40;;;;;;5089192;28;20069;-62
2023/05/19 10:57:29;;;;;;;5.40;1.90;;;21.40;56.30;;;;;;5082684;28;20094;-64
2023/05/19 10:59:56;;;;;;;7.40;2.20;;;21.40;56.20;;;;;;5074104;28;20036;-63
2023/05/19 11:02:41;;;;;;;7.35;2.45;;;21.40;56.20;;;;;;5071846;28;20079;-63
2023/05/19 11:05:15;;;;;;;5.82;2.00;;;21.40;56.20;;;;;;5073073;28;20496;-64
2023/05/19 11:07:53;;;;;;;7.95;2.30;;;21.40;56.20;;;;;;5073193;28;20086;-63
2023/05/19 11:10:22;;;;;;;7.82;2.28;;;21.40;56.30;;;;;;5056593;28;20105;-63
2023/05/19 11:12:47;;;;;;;7.15;2.40;;;21.40;56.20;;;;;;5075194;28;20067;-64
2023/05/19 11:15:13;;;;;;;7.15;2.90;;;21.40;56.90;;;;;;5055677;28;20095;-64
2023/05/19 11:17:42;;;;;;;6.85;2.13;;;21.40;56.20;;;;;;5071817;28;20442;-63
2023/05/19 11:20:11;;;;;;;5.45;2.08;;;21.40;56.20;;;;;;5071695;28;20033;-64
2023/05/19 11:22:37;;;;;;;5.55;2.15;;;21.40;56.20;;;;;;5073360;28;20076;-64
2023/05/19 11:25:03;;;;;;;6.45;2.50;;;21.50;56.30;;;;;;5056060;28;20044;-63
2023/05/19 11:27:33;;;;;;;5.72;2.10;;;21.50;56.40;;;;;;5073346;28;20454;-64
2023/05/19 11:30:00;;;;;;;6.00;2.20;;;21.50;56.40;;;;;;5073233;28;20510;-63
2023/05/19 11:32:27;;;;;;;4.68;1.95;;;21.50;56.30;;;;;;5073358;28;20480;-63
2023/05/19 11:34:53;;;;;;;8.80;2.28;;;21.50;56.40;;;;;;5073222;28;20227;-64
2023/05/19 11:37:19;;;;;;;7.40;2.22;;;21.50;56.30;;;;;;5067676;28;20041;-63
2023/05/19 11:39:46;;;;;;;5.13;2.00;;;21.50;56.40;;;;;;5073550;28;20442;-64
2023/05/19 11:42:11;;;;;;;5.20;2.00;;;21.50;56.40;;;;;;5073549;28;20059;-64
2023/05/19 11:44:45;;;;;;;6.68;1.83;;;21.50;56.40;;;;;;5072690;28;20392;-65
2023/05/19 11:47:13;;;;;;;6.32;1.88;;;21.50;56.40;;;;;;5068950;28;20162;-65
2023/05/19 11:49:46;;;;;;;5.25;2.15;;;21.50;56.40;;;;;;5072804;28;20051;-65
2023/05/19 11:52:12;;;;;;;5.70;2.15;;;21.50;56.40;;;;;;5070269;28;20044;-65
2023/05/19 11:54:40;;;;;;;7.93;1.73;;;21.50;56.40;;;;;;5072400;28;20059;-65
2023/05/19 11:57:07;;;;;;;5.47;2.13;;;21.50;56.40;;;;;;5071636;28;20111;-65
2023/05/19 11:59:34;;;;;;;4.97;1.70;;;21.50;56.40;;;;;;5072248;28;20109;-63
2023/05/19 12:02:15;;;;;;;5.03;1.80;;;21.50;56.30;;;;;;5073467;28;20047;-64
2023/05/19 12:04:41;;;;;;;6.93;2.17;;;21.50;56.30;;;;;;5078934;28;20505;-63
2023/05/19 12:07:07;;;;;;;5.75;1.80;;;21.50;56.30;;;;;;5068521;28;20040;-64
2023/05/19 12:09:32;;;;;;;6.90;2.03;;;21.50;56.20;;;;;;5072905;28;20419;-65
2023/05/19 12:11:58;;;;;;;4.80;1.90;;;21.50;56.20;;;;;;5072512;28;20111;-64
2023/05/19 12:14:25;;;;;;;4.53;1.85;;;21.50;56.20;;;;;;5070951;28;20131;-64
2023/05/19 12:16:50;;;;;;;3.50;1.47;;;21.50;56.20;;;;;;5071741;28;20049;-64
2023/05/19 12:19:16;;;;;;;6.88;1.60;;;21.50;56.20;;;;;;5070044;28;20043;-63
2023/05/19 12:21:42;;;;;;;4.82;1.60;;;21.50;56.20;;;;;;5072897;28;20135;-64
2023/05/19 12:24:07;;;;;;;4.90;1.70;;;21.50;56.10;;;;;;5054419;28;20464;-63
2023/05/19 12:26:34;;;;;;;5.03;1.77;;;21.50;56.10;;;;;;5054032;28;20127;-64
2023/05/19 12:29:00;;;;;;;5.75;1.58;;;21.50;56.10;;;;;;5071363;28;20079;-64
2023/05/19 12:31:25;;;;;;;5.78;2.00;;;21.50;56.10;;;;;;5072417;28;20049;-62
2023/05/19 12:33:51;;;;;;;7.05;1.60;;;21.60;56.00;;;;;;5072475;28;20083;-62
2023/05/19 12:36:17;;;;;;;7.63;2.17;;;21.60;55.20;;;;;;5071129;28;20048;-62
2023/05/19 12:38:44;;;;;;;5.30;1.55;;;21.60;53.80;;;;;;5071702;28;20154;-62
2023/05/19 12:41:13;;;;;;;5.03;2.08;;;21.50;52.90;;;;;;5070540;28;20476;-64
2023/05/19 12:43:39;;;;;;;7.75;1.63;;;21.60;52.50;;;;;;5070641;28;20090;-63
2023/05/19 12:46:11;;;;;;;6.72;1.58;;;21.60;52.50;;;;;;5071758;28;20448;-63
2023/05/19 12:48:42;;;;;;;6.22;1.70;;;21.60;52.30;;;;;;5072099;28;20068;-62